createdAt,value
2019-03-31T00:02:24.056Z,68.62
2019-03-31T00:04:57.815Z,68.87
2019-03-31T00:07:31.582Z,68.79
2019-03-31T00:10:05.772Z,69.51
2019-03-31T00:12:39.475Z,69.00
2019-03-31T00:15:13.570Z,69.21
2019-03-31T00:17:47.175Z,68.87
2019-03-31T00:20:20.839Z,68.85
2019-03-31T00:22:54.492Z,68.95
2019-03-31T00:25:28.771Z,68.86
2019-03-31T00:28:02.475Z,68.68
2019-03-31T00:30:36.153Z,68.52
2019-03-31T00:33:09.781Z,69.37
2019-03-31T00:35:43.424Z,69.08
2019-03-31T00:38:17.144Z,68.44
2019-03-31T00:40:50.870Z,68.85
2019-03-31T00:43:24.585Z,68.88
2019-03-31T00:45:58.185Z,68.71
2019-03-31T00:48:33.343Z,68.62
2019-03-31T00:51:06.995Z,68.37
2019-03-31T00:53:40.599Z,69.10
2019-03-31T00:56:14.276Z,69.06
2019-03-31T00:58:47.947Z,69.36
2019-03-31T01:01:36.435Z,69.57
2019-03-31T01:04:05.401Z,69.84
2019-03-31T01:06:39.494Z,69.92
2019-03-31T01:09:32.588Z,69.49
2019-03-31T01:12:07.463Z,68.93
2019-03-31T01:14:41.449Z,69.13
2019-03-31T01:17:18.667Z,69.02
2019-03-31T01:19:53.335Z,68.87
2019-03-31T01:22:27.867Z,68.89
2019-03-31T01:25:01.696Z,68.77
2019-03-31T01:27:37.593Z,68.81
2019-03-31T01:30:12.757Z,68.79
2019-03-31T01:32:46.797Z,68.64
2019-03-31T01:35:21.232Z,68.45
2019-03-31T01:37:55.144Z,68.17
2019-03-31T01:40:29.268Z,67.89
2019-03-31T01:43:02.913Z,67.57
2019-03-31T01:45:36.939Z,67.67
2019-03-31T01:48:11.681Z,68.19
2019-03-31T01:50:45.593Z,68.46
2019-03-31T01:53:19.386Z,68.71
2019-03-31T01:55:53.008Z,69.47
2019-03-31T01:58:26.651Z,69.70
2019-03-31T02:01:01.789Z,70.04
2019-03-31T02:03:35.603Z,70.33
2019-03-31T02:06:09.406Z,70.10
2019-03-31T02:08:43.214Z,70.50
2019-03-31T02:11:17.802Z,70.21
2019-03-31T02:13:51.496Z,70.30
2019-03-31T02:16:26.684Z,70.35
2019-03-31T02:19:00.398Z,70.46
2019-03-31T02:21:34.818Z,70.57
2019-03-31T02:24:08.470Z,70.42
2019-03-31T02:26:42.091Z,70.03
2019-03-31T02:29:15.793Z,70.08
2019-03-31T02:31:49.429Z,70.38
2019-03-31T02:34:23.041Z,70.37
2019-03-31T02:36:56.735Z,70.24
2019-03-31T02:39:32.002Z,70.29
2019-03-31T02:42:05.901Z,69.92
2019-03-31T02:44:39.571Z,69.80
2019-03-31T02:47:13.296Z,69.49
2019-03-31T02:49:47.055Z,69.64
2019-03-31T02:52:20.663Z,69.79
2019-03-31T02:54:54.407Z,69.63
2019-03-31T02:57:28.747Z,69.77
2019-03-31T03:00:04.273Z,69.93
2019-03-31T03:02:42.559Z,69.90
2019-03-31T03:05:19.876Z,69.91
2019-03-31T03:07:51.576Z,69.95
2019-03-31T03:10:27.476Z,69.64
2019-03-31T03:13:04.058Z,69.37
2019-03-31T03:15:50.203Z,69.88
2019-03-31T03:18:23.878Z,70.01
2019-03-31T03:20:57.507Z,70.07
2019-03-31T03:23:31.167Z,69.70
2019-03-31T03:26:05.018Z,69.53
2019-03-31T03:28:38.676Z,69.19
2019-03-31T03:31:15.773Z,69.17
2019-03-31T03:33:49.012Z,69.35
2019-03-31T03:36:22.633Z,69.78
2019-03-31T03:38:56.456Z,69.92
2019-03-31T03:41:30.224Z,70.12
2019-03-31T03:44:03.880Z,70.32
2019-03-31T03:46:37.513Z,70.13
2019-03-31T03:49:11.519Z,70.00
2019-03-31T03:51:45.497Z,69.33
2019-03-31T03:54:19.208Z,68.92
2019-03-31T03:56:52.907Z,68.69
2019-03-31T03:59:26.791Z,68.64
2019-03-31T04:02:00.513Z,68.76
2019-03-31T04:04:34.556Z,68.70
2019-03-31T04:07:08.274Z,68.33
2019-03-31T04:09:41.893Z,67.94
2019-03-31T04:12:15.626Z,67.93
2019-03-31T04:14:49.598Z,67.85
2019-03-31T04:17:23.277Z,67.82
2019-03-31T04:19:57.101Z,67.80
2019-03-31T04:22:30.761Z,67.74
2019-03-31T04:25:04.623Z,67.81
2019-03-31T04:27:38.394Z,67.87
2019-03-31T04:30:12.147Z,67.86
2019-03-31T04:32:45.950Z,68.43
2019-03-31T04:35:19.788Z,68.52
2019-03-31T04:37:53.509Z,68.15
2019-03-31T04:40:27.263Z,68.27
2019-03-31T04:43:00.936Z,68.14
2019-03-31T04:45:34.722Z,68.35
2019-03-31T04:48:08.329Z,68.27
2019-03-31T04:50:43.541Z,68.29
2019-03-31T04:53:17.665Z,68.42
2019-03-31T04:55:51.355Z,68.45
2019-03-31T04:58:25.027Z,68.73
2019-03-31T05:00:58.863Z,69.12
2019-03-31T05:03:32.569Z,69.39
2019-03-31T05:06:06.246Z,69.00
2019-03-31T05:08:39.984Z,69.31
2019-03-31T05:11:13.686Z,68.94
2019-03-31T05:13:47.490Z,68.94
2019-03-31T05:16:21.226Z,69.14
2019-03-31T05:18:54.955Z,69.04
2019-03-31T05:21:28.627Z,69.07
2019-03-31T05:24:02.379Z,68.83
2019-03-31T05:26:36.282Z,68.87
2019-03-31T05:29:10.405Z,68.77
2019-03-31T05:31:44.087Z,68.51
2019-03-31T05:34:19.283Z,68.44
2019-03-31T05:36:53.441Z,68.28
2019-03-31T05:39:29.055Z,67.95
2019-03-31T05:42:03.098Z,67.78
2019-03-31T05:44:37.854Z,67.67
2019-03-31T05:47:11.681Z,67.47
2019-03-31T05:49:45.524Z,67.19
2019-03-31T05:52:19.331Z,67.13
2019-03-31T05:54:52.967Z,66.99
2019-03-31T05:57:26.595Z,67.01
2019-03-31T06:00:00.544Z,66.76
2019-03-31T06:02:34.511Z,66.41
2019-03-31T06:05:09.250Z,66.93
2019-03-31T06:07:43.017Z,67.47
2019-03-31T06:10:16.791Z,67.32
2019-03-31T06:12:50.559Z,66.75
2019-03-31T06:15:24.374Z,66.55
2019-03-31T06:17:58.300Z,66.63
2019-03-31T06:20:33.788Z,66.52
2019-03-31T06:23:07.456Z,66.99
2019-03-31T06:25:41.093Z,66.72
2019-03-31T06:28:14.766Z,66.56
2019-03-31T06:30:48.497Z,66.21
2019-03-31T06:33:22.098Z,66.04
2019-03-31T06:35:55.756Z,65.75
2019-03-31T06:38:29.299Z,65.70
2019-03-31T06:41:04.041Z,65.71
2019-03-31T06:43:37.749Z,65.94
2019-03-31T06:46:12.507Z,66.08
2019-03-31T06:48:46.415Z,65.74
2019-03-31T06:51:21.231Z,65.39
2019-03-31T06:53:54.997Z,65.36
2019-03-31T06:56:28.817Z,64.80
2019-03-31T06:59:02.609Z,63.67
2019-03-31T07:01:36.559Z,63.58
2019-03-31T07:04:10.233Z,61.64
2019-03-31T07:06:44.029Z,61.20
2019-03-31T07:09:17.919Z,60.61
2019-03-31T07:11:51.697Z,60.73
2019-03-31T07:14:25.538Z,59.78
2019-03-31T07:16:59.425Z,60.10
2019-03-31T07:19:33.108Z,60.01
2019-03-31T07:22:06.795Z,59.36
2019-03-31T07:24:40.489Z,59.45
2019-03-31T07:27:14.222Z,60.11
2019-03-31T07:29:47.988Z,60.00
2019-03-31T07:32:21.905Z,60.13
2019-03-31T07:34:55.720Z,60.14
2019-03-31T07:37:29.833Z,60.13
2019-03-31T07:40:12.063Z,60.30
2019-03-31T07:42:50.873Z,60.67
2019-03-31T07:45:23.733Z,60.66
2019-03-31T07:47:57.568Z,60.40
2019-03-31T07:50:31.587Z,60.49
2019-03-31T07:53:07.231Z,59.44
2019-03-31T07:55:42.822Z,59.46
2019-03-31T07:58:20.956Z,58.32
2019-03-31T08:00:57.581Z,58.61
2019-03-31T08:03:34.470Z,58.74
2019-03-31T08:06:13.087Z,57.88
2019-03-31T08:08:53.238Z,57.87
2019-03-31T08:11:33.635Z,56.93
2019-03-31T08:14:10.220Z,55.96
2019-03-31T08:16:45.618Z,54.74
2019-03-31T08:19:22.626Z,54.58
2019-03-31T08:21:57.739Z,53.92
2019-03-31T08:24:43.423Z,53.69
2019-03-31T08:27:19.517Z,53.27
2019-03-31T08:30:00.334Z,52.60
2019-03-31T08:32:35.614Z,50.88
2019-03-31T08:35:12.311Z,51.20
2019-03-31T08:37:52.543Z,49.43
2019-03-31T08:40:26.461Z,48.05
2019-03-31T08:43:06.483Z,48.31
2019-03-31T08:45:45.345Z,48.30
2019-03-31T08:48:28.339Z,48.05
2019-03-31T08:51:04.518Z,47.49
2019-03-31T08:53:39.750Z,46.63
2019-03-31T08:56:17.833Z,46.49
2019-03-31T08:58:51.652Z,47.38
2019-03-31T09:01:25.736Z,49.26
2019-03-31T09:04:07.085Z,48.58
2019-03-31T09:06:42.196Z,48.39
2019-03-31T09:09:16.223Z,46.61
2019-03-31T09:11:50.091Z,46.58
2019-03-31T09:14:30.759Z,47.18
2019-03-31T09:17:06.999Z,49.96
2019-03-31T09:19:44.763Z,51.85
2019-03-31T09:22:21.654Z,52.47
2019-03-31T09:24:58.465Z,52.91
2019-03-31T09:27:34.134Z,51.60
2019-03-31T09:30:12.060Z,51.49
2019-03-31T09:32:47.393Z,50.00
2019-03-31T09:35:23.191Z,50.71
2019-03-31T09:38:01.161Z,49.37
2019-03-31T09:40:40.222Z,49.33
2019-03-31T09:43:15.449Z,49.15
2019-03-31T09:45:51.995Z,49.05
2019-03-31T09:48:29.328Z,50.63
2019-03-31T09:51:06.039Z,52.34
2019-03-31T09:53:43.416Z,51.38
2019-03-31T09:56:19.149Z,49.24
2019-03-31T09:58:57.314Z,45.92
2019-03-31T10:01:33.681Z,44.90
2019-03-31T10:04:07.448Z,47.39
2019-03-31T10:06:41.382Z,49.47
2019-03-31T10:09:15.128Z,49.64
2019-03-31T10:11:52.428Z,49.85
2019-03-31T10:14:26.177Z,49.90
2019-03-31T10:17:00.908Z,50.66
2019-03-31T10:19:35.720Z,51.78
2019-03-31T10:22:09.433Z,51.77
2019-03-31T10:24:43.082Z,51.00
2019-03-31T10:27:16.744Z,50.61
2019-03-31T10:29:50.414Z,50.27
2019-03-31T10:32:24.016Z,48.86
2019-03-31T10:34:57.818Z,47.73
2019-03-31T10:37:31.577Z,47.43
2019-03-31T10:40:11.747Z,47.92
2019-03-31T10:42:45.550Z,46.04
2019-03-31T10:45:19.501Z,47.40
2019-03-31T10:47:53.273Z,47.96
2019-03-31T10:50:27.344Z,48.07
2019-03-31T10:53:01.225Z,49.48
2019-03-31T10:55:42.798Z,49.65
2019-03-31T10:58:21.986Z,49.62
2019-03-31T11:00:58.606Z,48.33
2019-03-31T11:03:33.234Z,47.07
2019-03-31T11:06:11.652Z,45.71
2019-03-31T11:08:48.226Z,45.93
2019-03-31T11:11:22.051Z,46.75
2019-03-31T11:13:56.251Z,47.02
2019-03-31T11:16:29.930Z,47.64
2019-03-31T11:19:05.524Z,46.84
2019-03-31T11:21:52.834Z,46.53
2019-03-31T11:24:26.832Z,46.55
2019-03-31T11:27:07.188Z,46.57
2019-03-31T11:29:58.708Z,47.22
2019-03-31T11:32:32.830Z,47.70
2019-03-31T11:35:06.627Z,48.43
2019-03-31T11:37:40.518Z,48.47
2019-03-31T11:40:16.048Z,48.17
2019-03-31T11:42:53.458Z,48.24
2019-03-31T11:45:27.172Z,48.45
2019-03-31T11:48:03.282Z,48.44
2019-03-31T11:50:37.213Z,48.14
2019-03-31T11:53:17.088Z,48.77
2019-03-31T11:55:50.826Z,48.59
2019-03-31T11:58:24.701Z,49.26
2019-03-31T12:00:58.503Z,50.12
2019-03-31T12:03:32.303Z,49.42
2019-03-31T12:06:06.011Z,49.30
2019-03-31T12:08:41.323Z,49.74
2019-03-31T12:11:15.211Z,49.10
2019-03-31T12:13:49.017Z,49.11
2019-03-31T12:16:22.771Z,49.21
2019-03-31T12:18:56.409Z,48.75
2019-03-31T12:21:30.277Z,48.66
2019-03-31T12:24:04.001Z,48.09
2019-03-31T12:26:37.745Z,47.52
2019-03-31T12:29:17.287Z,48.29
2019-03-31T12:31:54.551Z,47.71
2019-03-31T12:34:28.463Z,46.73
2019-03-31T12:37:02.314Z,46.28
2019-03-31T12:39:38.183Z,44.57
2019-03-31T12:42:12.005Z,43.39
2019-03-31T12:44:45.964Z,44.20
2019-03-31T12:47:19.841Z,44.72
2019-03-31T12:49:55.169Z,46.21
2019-03-31T12:52:46.140Z,47.07
2019-03-31T12:55:08.799Z,48.28
2019-03-31T12:57:44.475Z,48.83
2019-03-31T13:00:18.754Z,48.89
2019-03-31T13:02:58.003Z,49.12
2019-03-31T13:05:34.746Z,49.43
2019-03-31T13:08:36.300Z,49.80
2019-03-31T13:11:15.497Z,49.79
2019-03-31T13:13:50.933Z,49.41
2019-03-31T13:16:27.413Z,47.55
2019-03-31T13:19:01.414Z,48.11
2019-03-31T13:21:35.429Z,47.31
2019-03-31T13:24:11.858Z,47.40
2019-03-31T13:27:03.959Z,47.49
2019-03-31T13:29:42.982Z,47.82
2019-03-31T13:32:16.871Z,46.73
2019-03-31T13:34:50.960Z,46.86
2019-03-31T13:37:24.631Z,46.60
2019-03-31T13:39:58.401Z,46.01
2019-03-31T13:42:32.200Z,46.31
2019-03-31T13:45:10.045Z,46.61
2019-03-31T13:47:43.826Z,46.82
2019-03-31T13:50:19.857Z,46.76
2019-03-31T13:52:53.586Z,47.17
2019-03-31T13:55:27.231Z,47.29
2019-03-31T13:58:03.428Z,47.77
2019-03-31T14:00:42.826Z,47.91
2019-03-31T14:03:16.750Z,47.91
2019-03-31T14:05:50.523Z,47.78
2019-03-31T14:08:26.035Z,47.63
2019-03-31T14:10:59.627Z,47.41
2019-03-31T14:13:33.409Z,47.09
2019-03-31T14:16:07.238Z,47.26
2019-03-31T14:18:40.995Z,47.56
2019-03-31T14:21:14.827Z,47.86
2019-03-31T14:23:48.530Z,48.58
2019-03-31T14:26:22.133Z,48.36
2019-03-31T14:28:55.809Z,48.44
2019-03-31T14:31:29.577Z,48.53
2019-03-31T14:34:03.340Z,47.74
2019-03-31T14:36:39.981Z,47.48
2019-03-31T14:39:17.014Z,48.14
2019-03-31T14:41:49.487Z,47.81
2019-03-31T14:44:43.442Z,47.72
2019-03-31T14:47:17.183Z,47.32
2019-03-31T14:49:51.063Z,45.54
2019-03-31T14:52:27.668Z,44.90
2019-03-31T14:55:00.533Z,45.01
2019-03-31T14:57:34.262Z,44.66
2019-03-31T15:00:15.071Z,41.03
2019-03-31T15:02:44.995Z,41.43
2019-03-31T15:05:21.696Z,41.39
2019-03-31T15:07:58.325Z,41.56
2019-03-31T15:10:31.100Z,40.86
2019-03-31T15:13:06.030Z,40.15
2019-03-31T15:15:39.880Z,40.72
2019-03-31T15:18:13.535Z,40.51
2019-03-31T15:20:47.320Z,40.97
2019-03-31T15:23:29.020Z,41.02
2019-03-31T15:25:56.403Z,40.93
2019-03-31T15:28:30.108Z,40.83
2019-03-31T15:31:04.856Z,40.67
2019-03-31T15:33:38.508Z,40.12
2019-03-31T15:36:12.233Z,38.69
2019-03-31T15:38:45.938Z,38.13
2019-03-31T15:41:21.286Z,38.49
2019-03-31T15:43:55.098Z,38.65
2019-03-31T15:46:28.785Z,38.83
2019-03-31T15:49:02.495Z,39.11
2019-03-31T15:51:36.523Z,39.59
2019-03-31T15:54:10.265Z,39.16
2019-03-31T15:56:44.219Z,39.70
2019-03-31T15:59:17.955Z,39.36
2019-03-31T16:01:51.632Z,39.56
2019-03-31T16:04:25.374Z,39.37
2019-03-31T16:06:59.362Z,39.62
2019-03-31T16:09:32.286Z,38.99
2019-03-31T16:12:05.545Z,37.74
2019-03-31T16:14:38.629Z,36.65
2019-03-31T16:17:11.780Z,37.47
2019-03-31T16:19:44.705Z,37.42
2019-03-31T16:22:17.647Z,37.10
2019-03-31T16:24:52.321Z,36.83
2019-03-31T16:27:25.162Z,36.74
2019-03-31T16:29:58.056Z,36.94
2019-03-31T16:32:30.846Z,37.46
2019-03-31T16:35:03.744Z,37.28
2019-03-31T16:37:36.572Z,38.01
2019-03-31T16:40:09.409Z,37.73
2019-03-31T16:42:42.267Z,37.01
2019-03-31T16:45:15.229Z,36.70
2019-03-31T16:47:48.234Z,36.63
2019-03-31T16:50:21.228Z,36.84
2019-03-31T16:52:54.136Z,36.59
2019-03-31T16:55:27.373Z,36.28
2019-03-31T16:58:00.566Z,36.28
2019-03-31T17:00:34.736Z,36.21
2019-03-31T17:03:07.861Z,36.24
2019-03-31T17:05:40.672Z,36.02
2019-03-31T17:08:13.457Z,36.34
2019-03-31T17:10:46.394Z,36.52
2019-03-31T17:13:19.203Z,36.92
2019-03-31T17:15:52.115Z,36.66
2019-03-31T17:18:24.934Z,36.60
2019-03-31T17:20:57.789Z,36.80
2019-03-31T17:23:30.652Z,37.04
2019-03-31T17:26:03.631Z,36.71
2019-03-31T17:28:36.526Z,36.94
2019-03-31T17:31:09.743Z,36.27
2019-03-31T17:33:42.539Z,37.04
2019-03-31T17:36:15.426Z,37.47
2019-03-31T17:38:48.319Z,37.58
2019-03-31T17:41:21.250Z,37.46
2019-03-31T17:43:54.096Z,37.35
2019-03-31T17:46:27.006Z,37.68
2019-03-31T17:49:06.035Z,37.95
2019-03-31T17:51:38.863Z,37.18
2019-03-31T17:54:11.622Z,36.93
2019-03-31T17:56:44.411Z,36.38
2019-03-31T17:59:17.387Z,36.24
2019-03-31T18:01:50.296Z,35.41
2019-03-31T18:04:23.177Z,35.03
2019-03-31T18:06:55.988Z,34.30
2019-03-31T18:09:28.842Z,34.14
2019-03-31T18:12:01.819Z,34.57
2019-03-31T18:14:34.710Z,34.58
2019-03-31T18:17:07.547Z,34.54
2019-03-31T18:19:40.465Z,34.07
2019-03-31T18:22:16.816Z,34.44
2019-03-31T18:24:47.974Z,34.28
2019-03-31T18:27:20.906Z,34.43
2019-03-31T18:29:53.804Z,34.19
2019-03-31T18:32:26.650Z,34.53
2019-03-31T18:34:59.534Z,34.62
2019-03-31T18:37:32.597Z,34.22
2019-03-31T18:40:06.909Z,34.30
2019-03-31T18:42:39.922Z,34.48
2019-03-31T18:45:12.857Z,33.99
2019-03-31T18:47:45.916Z,34.33
2019-03-31T18:50:18.810Z,34.77
2019-03-31T18:52:51.786Z,34.87
2019-03-31T18:55:38.664Z,34.90
2019-03-31T18:58:20.406Z,35.29
2019-03-31T19:01:19.378Z,35.38
2019-03-31T19:04:09.222Z,35.40
2019-03-31T19:07:10.086Z,35.60
2019-03-31T19:10:01.762Z,35.99
2019-03-31T19:13:12.073Z,36.39
2019-03-31T19:16:08.948Z,36.50
2019-03-31T19:19:06.734Z,36.95
2019-03-31T19:22:04.576Z,37.11
2019-03-31T19:24:54.920Z,37.28
2019-03-31T19:27:34.920Z,37.55
2019-03-31T19:30:22.049Z,37.56
2019-03-31T19:33:04.690Z,37.80
2019-03-31T19:36:00.954Z,38.17
2019-03-31T19:38:52.769Z,38.62
2019-03-31T19:41:42.910Z,38.99
2019-03-31T19:44:26.025Z,39.19
2019-03-31T19:47:06.593Z,39.75
2019-03-31T19:49:57.362Z,39.89
2019-03-31T19:52:49.028Z,40.10
2019-03-31T19:56:07.034Z,40.38
2019-03-31T19:58:59.173Z,40.69
2019-03-31T20:01:52.182Z,40.81
2019-03-31T20:04:47.735Z,41.24
2019-03-31T20:07:50.303Z,41.51
2019-03-31T20:10:40.133Z,42.13
2019-03-31T20:13:31.923Z,42.35
2019-03-31T20:16:14.141Z,43.03
2019-03-31T20:19:14.858Z,43.04
2019-03-31T20:21:59.667Z,43.16
2019-03-31T20:24:50.095Z,43.26
2019-03-31T20:27:37.827Z,43.52
2019-03-31T20:30:33.359Z,43.92
2019-03-31T20:33:23.938Z,43.89
2019-03-31T20:36:21.463Z,44.25
2019-03-31T20:39:13.191Z,44.36
2019-03-31T20:41:57.351Z,44.86
2019-03-31T20:44:30.215Z,45.07
2019-03-31T20:47:03.167Z,44.99
2019-03-31T20:49:36.152Z,45.42
2019-03-31T20:52:09.055Z,45.53
2019-03-31T20:54:42.067Z,45.88
2019-03-31T20:57:14.996Z,46.02
2019-03-31T20:59:49.127Z,46.23
2019-03-31T21:02:22.391Z,46.22
2019-03-31T21:04:55.363Z,46.63
2019-03-31T21:07:28.326Z,46.75
2019-03-31T21:10:01.199Z,47.01
2019-03-31T21:12:34.178Z,47.24
2019-03-31T21:15:07.257Z,47.32
2019-03-31T21:17:40.126Z,47.57
2019-03-31T21:20:13.172Z,47.68
2019-03-31T21:22:47.018Z,48.02
2019-03-31T21:25:19.831Z,48.30
2019-03-31T21:27:52.622Z,48.64
2019-03-31T21:30:25.465Z,48.76
2019-03-31T21:32:58.296Z,48.89
2019-03-31T21:35:31.375Z,48.97
2019-03-31T21:38:04.323Z,48.87
2019-03-31T21:40:37.251Z,49.18
2019-03-31T21:43:10.051Z,49.30
2019-03-31T21:45:43.790Z,49.33
2019-03-31T21:48:16.872Z,49.48
2019-03-31T21:50:49.721Z,49.71
2019-03-31T21:53:22.755Z,49.85
2019-03-31T21:55:55.876Z,49.69
2019-03-31T21:58:29.155Z,49.82
2019-03-31T22:01:02.832Z,49.76
2019-03-31T22:03:37.016Z,49.97
2019-03-31T22:06:10.113Z,50.05
2019-03-31T22:08:43.248Z,49.98
2019-03-31T22:11:16.235Z,50.09
2019-03-31T22:13:49.241Z,49.93
2019-03-31T22:16:23.307Z,50.23
2019-03-31T22:18:56.239Z,49.95
2019-03-31T22:21:29.208Z,50.23
2019-03-31T22:24:02.182Z,50.13
2019-03-31T22:26:35.191Z,50.30
2019-03-31T22:29:09.090Z,50.31
2019-03-31T22:31:42.010Z,50.40
2019-03-31T22:34:15.086Z,50.62
2019-03-31T22:36:48.053Z,50.61
2019-03-31T22:39:21.026Z,50.72
2019-03-31T22:41:53.921Z,50.65
2019-03-31T22:44:26.887Z,50.62
2019-03-31T22:46:59.921Z,51.83
2019-03-31T22:49:32.936Z,51.48
2019-03-31T22:52:05.860Z,51.62
2019-03-31T22:54:38.760Z,51.65
2019-03-31T22:57:11.636Z,51.51
2019-03-31T22:59:44.608Z,51.80
2019-03-31T23:02:17.496Z,51.94
2019-03-31T23:04:50.568Z,52.62
2019-03-31T23:07:23.450Z,52.22
2019-03-31T23:09:56.422Z,52.69
2019-03-31T23:12:29.332Z,53.15
2019-03-31T23:15:02.307Z,53.05
2019-03-31T23:17:35.204Z,53.66
2019-03-31T23:20:08.249Z,53.70
2019-03-31T23:22:41.329Z,53.94
2019-03-31T23:25:14.251Z,53.90
2019-03-31T23:27:47.249Z,54.45
2019-03-31T23:30:20.266Z,55.34
2019-03-31T23:32:53.268Z,55.02
2019-03-31T23:35:26.288Z,54.67
2019-03-31T23:37:59.236Z,54.86
2019-03-31T23:40:32.168Z,54.42
2019-03-31T23:43:05.036Z,54.91
2019-03-31T23:45:37.921Z,54.64
2019-03-31T23:48:10.763Z,55.29
2019-03-31T23:50:43.642Z,55.77
2019-03-31T23:53:16.798Z,56.71
2019-03-31T23:55:49.705Z,55.51
2019-03-31T23:58:22.623Z,55.58
